KSAT/SAT METAR and TAF weather

Enter ICAO airport designator
Station Type Date Time Source
KSAT METAR 2019/04/18 10:38 UTC NOAA

KSAT 181038Z 19006KT 10SM BKN013 BKN130 OVC250 16/13 A2978 RMK AO2 LTG DSNT E T01560133 $


Station Type Date Time Source
KSAT Decoded METAR 2019/04/18 10:38 UTC NOAA

SAN ANTONIO INTERNATIONAL AIRPORT , TX, United States (KSAT) 29-32N 098-28W 243M
Apr 18, 2019 - 06:38 AM EDT / 2019.04.18 1038 UTC
Wind: from the S (190 degrees) at 7 MPH (6 KT):0
Visibility: 10 mile(s):0
Sky conditions: overcast
Weather: Lightning observed
Temperature: 60.1 F (15.6 C)
Dew Point: 55.9 F (13.3 C)
Relative Humidity: 86%
Pressure (altimeter): 29.78 in. Hg (1008 hPa)
ob: KSAT 181038Z 19006KT 10SM BKN013 BKN130 OVC250 16/13 A2978 RMK AO2 LTG DSNT E T01560133
cycle: 10

Station Type Date Time Source
KSAT TAF 2019/04/18 09:51 UTC NOAA

TAF
AMD KSAT 180848Z 1809/1912 35007KT P6SM -RA VCTS FEW015CB BKN070 OVC150
TEMPO 1809/1810 -TSRA
FM181000 28008KT P6SM BKN150
FM181200 30010KT P6SM SKC
FM181600 33016G26KT P6SM SKC
FM190300 33005KT P6SM SCT120

Example: see airport list